sensor_id;sensor_type;location;lat;lon;timestamp;temperature;humidity
26262;DHT22;13988;52.446;13.280;2023-02-13T00:02:14;7.30;99.90
26262;DHT22;13988;52.446;13.280;2023-02-13T00:04:40;7.30;99.90
26262;DHT22;13988;52.446;13.280;2023-02-13T00:07:08;7.30;99.90
26262;DHT22;13988;52.446;13.280;2023-02-13T00:09:36;7.30;99.90
26262;DHT22;13988;52.446;13.280;2023-02-13T00:12:02;7.30;99.90
26262;DHT22;13988;52.446;13.280;2023-02-13T00:14:28;7.20;99.90
26262;DHT22;13988;52.446;13.280;2023-02-13T00:16:53;7.20;99.90
26262;DHT22;13988;52.446;13.280;2023-02-13T00:19:19;7.20;99.90
26262;DHT22;13988;52.446;13.280;2023-02-13T00:21:44;7.20;99.90
26262;DHT22;13988;52.446;13.280;2023-02-13T00:24:10;7.20;99.90
26262;DHT22;13988;52.446;13.280;2023-02-13T00:26:36;7.20;99.90
26262;DHT22;13988;52.446;13.280;2023-02-13T00:29:01;7.10;99.90
26262;DHT22;13988;52.446;13.280;2023-02-13T00:31:27;7.10;99.90
26262;DHT22;13988;52.446;13.280;2023-02-13T00:33:53;7.10;99.90
26262;DHT22;13988;52.446;13.280;2023-02-13T00:36:21;7.10;99.90
26262;DHT22;13988;52.446;13.280;2023-02-13T00:38:47;7.10;99.90
26262;DHT22;13988;52.446;13.280;2023-02-13T00:41:14;7.10;99.90
26262;DHT22;13988;52.446;13.280;2023-02-13T00:43:42;7.10;99.90
26262;DHT22;13988;52.446;13.280;2023-02-13T00:46:08;7.00;99.90
26262;DHT22;13988;52.446;13.280;2023-02-13T00:48:35;7.00;99.90
26262;DHT22;13988;52.446;13.280;2023-02-13T00:51:01;7.00;99.90
26262;DHT22;13988;52.446;13.280;2023-02-13T00:53:28;6.90;99.90
26262;DHT22;13988;52.446;13.280;2023-02-13T00:55:53;6.90;99.90
26262;DHT22;13988;52.446;13.280;2023-02-13T00:58:19;6.90;99.90
26262;DHT22;13988;52.446;13.280;2023-02-13T01:00:45;6.90;99.90
26262;DHT22;13988;52.446;13.280;2023-02-13T01:03:12;6.90;99.90
26262;DHT22;13988;52.446;13.280;2023-02-13T01:05:39;6.90;99.90
26262;DHT22;13988;52.446;13.280;2023-02-13T01:08:05;6.90;99.90
26262;DHT22;13988;52.446;13.280;2023-02-13T01:10:31;6.90;99.90
26262;DHT22;13988;52.446;13.280;2023-02-13T01:12:56;6.80;99.90
26262;DHT22;13988;52.446;13.280;2023-02-13T01:15:22;6.80;99.90
26262;DHT22;13988;52.446;13.280;2023-02-13T01:17:48;6.80;99.90
26262;DHT22;13988;52.446;13.280;2023-02-13T01:20:14;6.80;99.90
26262;DHT22;13988;52.446;13.280;2023-02-13T01:22:40;6.80;99.90
26262;DHT22;13988;52.446;13.280;2023-02-13T01:25:09;6.80;99.90
26262;DHT22;13988;52.446;13.280;2023-02-13T01:27:34;6.80;99.90
26262;DHT22;13988;52.446;13.280;2023-02-13T01:30:00;6.80;99.90
26262;DHT22;13988;52.446;13.280;2023-02-13T01:32:26;6.80;99.90
26262;DHT22;13988;52.446;13.280;2023-02-13T01:34:51;6.70;99.90
26262;DHT22;13988;52.446;13.280;2023-02-13T01:37:17;6.80;99.90
26262;DHT22;13988;52.446;13.280;2023-02-13T01:39:43;6.70;99.90
26262;DHT22;13988;52.446;13.280;2023-02-13T01:42:15;6.70;99.90
26262;DHT22;13988;52.446;13.280;2023-02-13T01:44:45;6.70;99.90
26262;DHT22;13988;52.446;13.280;2023-02-13T01:47:13;6.70;99.90
26262;DHT22;13988;52.446;13.280;2023-02-13T01:49:40;6.70;99.90
26262;DHT22;13988;52.446;13.280;2023-02-13T01:52:08;6.70;99.90
26262;DHT22;13988;52.446;13.280;2023-02-13T01:54:35;6.60;99.90
26262;DHT22;13988;52.446;13.280;2023-02-13T01:57:04;6.60;99.90
26262;DHT22;13988;52.446;13.280;2023-02-13T01:59:40;6.60;99.90
26262;DHT22;13988;52.446;13.280;2023-02-13T02:02:08;6.60;99.90
26262;DHT22;13988;52.446;13.280;2023-02-13T02:04:35;6.60;99.90
26262;DHT22;13988;52.446;13.280;2023-02-13T02:07:32;6.60;99.90
26262;DHT22;13988;52.446;13.280;2023-02-13T02:10:01;6.60;99.90
26262;DHT22;13988;52.446;13.280;2023-02-13T02:12:57;6.60;99.90
26262;DHT22;13988;52.446;13.280;2023-02-13T02:15:26;6.60;99.90
26262;DHT22;13988;52.446;13.280;2023-02-13T02:17:51;6.60;99.90
26262;DHT22;13988;52.446;13.280;2023-02-13T02:28:52;6.50;99.90
26262;DHT22;13988;52.446;13.280;2023-02-13T02:36:58;6.50;99.90
26262;DHT22;13988;52.446;13.280;2023-02-13T02:47:49;6.50;99.90
26262;DHT22;13988;52.446;13.280;2023-02-13T02:56:12;6.50;99.90
26262;DHT22;13988;52.446;13.280;2023-02-13T02:58:45;6.50;99.90
26262;DHT22;13988;52.446;13.280;2023-02-13T03:01:32;6.50;99.90
26262;DHT22;13988;52.446;13.280;2023-02-13T03:04:26;6.50;99.90
26262;DHT22;13988;52.446;13.280;2023-02-13T03:07:14;6.50;99.90
26262;DHT22;13988;52.446;13.280;2023-02-13T03:09:44;6.50;99.90
26262;DHT22;13988;52.446;13.280;2023-02-13T03:13:02;6.50;99.90
26262;DHT22;13988;52.446;13.280;2023-02-13T03:15:46;6.40;99.90
26262;DHT22;13988;52.446;13.280;2023-02-13T03:18:36;6.40;99.90
26262;DHT22;13988;52.446;13.280;2023-02-13T03:21:49;6.50;99.90
26262;DHT22;13988;52.446;13.280;2023-02-13T03:33:45;6.40;99.90
26262;DHT22;13988;52.446;13.280;2023-02-13T03:36:43;6.40;99.90
26262;DHT22;13988;52.446;13.280;2023-02-13T03:39:55;6.40;99.90
26262;DHT22;13988;52.446;13.280;2023-02-13T03:45:16;6.40;99.90
26262;DHT22;13988;52.446;13.280;2023-02-13T03:48:04;6.40;99.90
26262;DHT22;13988;52.446;13.280;2023-02-13T03:50:52;6.40;99.90
26262;DHT22;13988;52.446;13.280;2023-02-13T03:53:18;6.40;99.90
26262;DHT22;13988;52.446;13.280;2023-02-13T03:55:46;6.40;99.90
26262;DHT22;13988;52.446;13.280;2023-02-13T03:58:36;6.40;99.90
26262;DHT22;13988;52.446;13.280;2023-02-13T04:01:27;6.40;99.90
26262;DHT22;13988;52.446;13.280;2023-02-13T04:06:40;6.40;99.90
26262;DHT22;13988;52.446;13.280;2023-02-13T04:09:07;6.30;99.90
26262;DHT22;13988;52.446;13.280;2023-02-13T04:11:41;6.30;99.90
26262;DHT22;13988;52.446;13.280;2023-02-13T04:14:22;6.30;99.90
26262;DHT22;13988;52.446;13.280;2023-02-13T04:16:52;6.30;99.90
26262;DHT22;13988;52.446;13.280;2023-02-13T04:19:21;6.30;99.90
26262;DHT22;13988;52.446;13.280;2023-02-13T04:21:50;6.30;99.90
26262;DHT22;13988;52.446;13.280;2023-02-13T04:24:20;6.30;99.90
26262;DHT22;13988;52.446;13.280;2023-02-13T04:26:45;6.30;99.90
26262;DHT22;13988;52.446;13.280;2023-02-13T04:29:11;6.30;99.90
26262;DHT22;13988;52.446;13.280;2023-02-13T04:31:37;6.30;99.90
26262;DHT22;13988;52.446;13.280;2023-02-13T04:34:02;6.30;99.90
26262;DHT22;13988;52.446;13.280;2023-02-13T04:36:28;6.30;99.90
26262;DHT22;13988;52.446;13.280;2023-02-13T04:38:54;6.20;99.90
26262;DHT22;13988;52.446;13.280;2023-02-13T04:41:19;6.20;99.90
26262;DHT22;13988;52.446;13.280;2023-02-13T04:43:45;6.30;99.90
26262;DHT22;13988;52.446;13.280;2023-02-13T04:46:10;6.30;99.90
26262;DHT22;13988;52.446;13.280;2023-02-13T04:48:36;6.30;99.90
26262;DHT22;13988;52.446;13.280;2023-02-13T04:51:02;6.30;99.90
26262;DHT22;13988;52.446;13.280;2023-02-13T04:53:27;6.30;99.90
26262;DHT22;13988;52.446;13.280;2023-02-13T04:55:53;6.30;99.90
26262;DHT22;13988;52.446;13.280;2023-02-13T04:58:19;6.30;99.90
26262;DHT22;13988;52.446;13.280;2023-02-13T05:00:44;6.30;99.90
26262;DHT22;13988;52.446;13.280;2023-02-13T05:03:11;6.30;99.90
26262;DHT22;13988;52.446;13.280;2023-02-13T05:05:38;6.30;99.90
26262;DHT22;13988;52.446;13.280;2023-02-13T05:08:04;6.30;99.90
26262;DHT22;13988;52.446;13.280;2023-02-13T05:10:30;6.20;99.90
26262;DHT22;13988;52.446;13.280;2023-02-13T05:12:56;6.20;99.90
26262;DHT22;13988;52.446;13.280;2023-02-13T05:15:22;6.20;99.90
26262;DHT22;13988;52.446;13.280;2023-02-13T05:17:48;6.30;99.90
26262;DHT22;13988;52.446;13.280;2023-02-13T05:20:14;6.20;99.90
26262;DHT22;13988;52.446;13.280;2023-02-13T05:22:47;6.20;99.90
26262;DHT22;13988;52.446;13.280;2023-02-13T05:25:33;6.20;99.90
26262;DHT22;13988;52.446;13.280;2023-02-13T05:27:59;6.20;99.90
26262;DHT22;13988;52.446;13.280;2023-02-13T05:30:24;6.20;99.90
26262;DHT22;13988;52.446;13.280;2023-02-13T05:32:50;6.30;99.90
26262;DHT22;13988;52.446;13.280;2023-02-13T05:35:17;6.20;99.90
26262;DHT22;13988;52.446;13.280;2023-02-13T05:37:43;6.20;99.90
26262;DHT22;13988;52.446;13.280;2023-02-13T05:40:10;6.20;99.90
26262;DHT22;13988;52.446;13.280;2023-02-13T05:42:36;6.20;99.90
26262;DHT22;13988;52.446;13.280;2023-02-13T05:45:01;6.10;99.90
26262;DHT22;13988;52.446;13.280;2023-02-13T05:47:27;6.20;99.90
26262;DHT22;13988;52.446;13.280;2023-02-13T05:49:53;6.20;99.90
26262;DHT22;13988;52.446;13.280;2023-02-13T05:52:18;6.20;99.90
26262;DHT22;13988;52.446;13.280;2023-02-13T05:54:44;6.10;99.90
26262;DHT22;13988;52.446;13.280;2023-02-13T05:57:09;6.20;99.90
26262;DHT22;13988;52.446;13.280;2023-02-13T05:59:35;6.20;99.90
26262;DHT22;13988;52.446;13.280;2023-02-13T06:02:01;6.30;99.90
26262;DHT22;13988;52.446;13.280;2023-02-13T06:04:26;6.20;99.90
26262;DHT22;13988;52.446;13.280;2023-02-13T06:06:52;6.30;99.90
26262;DHT22;13988;52.446;13.280;2023-02-13T06:09:18;6.20;99.90
26262;DHT22;13988;52.446;13.280;2023-02-13T06:11:43;6.30;99.90
26262;DHT22;13988;52.446;13.280;2023-02-13T06:14:10;6.10;99.90
26262;DHT22;13988;52.446;13.280;2023-02-13T06:16:36;6.20;99.90
26262;DHT22;13988;52.446;13.280;2023-02-13T06:19:02;6.10;99.90
26262;DHT22;13988;52.446;13.280;2023-02-13T06:21:27;6.10;99.90
26262;DHT22;13988;52.446;13.280;2023-02-13T06:23:53;6.10;99.90
26262;DHT22;13988;52.446;13.280;2023-02-13T06:26:18;6.00;99.90
26262;DHT22;13988;52.446;13.280;2023-02-13T06:28:44;6.00;99.90
26262;DHT22;13988;52.446;13.280;2023-02-13T06:31:10;6.00;99.90
26262;DHT22;13988;52.446;13.280;2023-02-13T06:33:35;6.00;99.90
26262;DHT22;13988;52.446;13.280;2023-02-13T06:36:01;6.00;99.90
26262;DHT22;13988;52.446;13.280;2023-02-13T06:38:27;6.00;99.90
26262;DHT22;13988;52.446;13.280;2023-02-13T06:41:01;6.00;99.90
26262;DHT22;13988;52.446;13.280;2023-02-13T06:43:26;6.00;99.90
26262;DHT22;13988;52.446;13.280;2023-02-13T06:45:52;6.00;99.90
26262;DHT22;13988;52.446;13.280;2023-02-13T06:48:18;6.00;99.90
26262;DHT22;13988;52.446;13.280;2023-02-13T06:50:44;6.10;99.90
26262;DHT22;13988;52.446;13.280;2023-02-13T06:53:10;6.10;99.90
26262;DHT22;13988;52.446;13.280;2023-02-13T06:55:36;6.10;99.90
26262;DHT22;13988;52.446;13.280;2023-02-13T06:58:04;6.10;99.90
26262;DHT22;13988;52.446;13.280;2023-02-13T07:00:30;6.20;99.90
26262;DHT22;13988;52.446;13.280;2023-02-13T07:03:02;6.20;99.90
26262;DHT22;13988;52.446;13.280;2023-02-13T07:05:28;6.20;99.90
26262;DHT22;13988;52.446;13.280;2023-02-13T07:07:54;6.20;99.90
26262;DHT22;13988;52.446;13.280;2023-02-13T07:10:19;6.20;99.90
26262;DHT22;13988;52.446;13.280;2023-02-13T07:12:45;6.20;99.90
26262;DHT22;13988;52.446;13.280;2023-02-13T07:15:11;6.20;99.90
26262;DHT22;13988;52.446;13.280;2023-02-13T07:17:36;6.30;99.90
26262;DHT22;13988;52.446;13.280;2023-02-13T07:20:03;6.30;99.90
26262;DHT22;13988;52.446;13.280;2023-02-13T07:22:30;6.30;99.90
26262;DHT22;13988;52.446;13.280;2023-02-13T07:24:57;6.20;99.90
26262;DHT22;13988;52.446;13.280;2023-02-13T07:27:23;6.30;99.90
26262;DHT22;13988;52.446;13.280;2023-02-13T07:29:49;6.30;99.90
26262;DHT22;13988;52.446;13.280;2023-02-13T07:32:14;6.30;99.90
26262;DHT22;13988;52.446;13.280;2023-02-13T07:34:40;6.30;99.90
26262;DHT22;13988;52.446;13.280;2023-02-13T07:37:05;6.40;99.90
26262;DHT22;13988;52.446;13.280;2023-02-13T07:39:31;6.40;99.90
26262;DHT22;13988;52.446;13.280;2023-02-13T07:41:57;6.60;99.90
26262;DHT22;13988;52.446;13.280;2023-02-13T07:44:23;6.50;99.90
26262;DHT22;13988;52.446;13.280;2023-02-13T07:46:48;6.40;99.90
26262;DHT22;13988;52.446;13.280;2023-02-13T07:49:14;6.50;99.90
26262;DHT22;13988;52.446;13.280;2023-02-13T07:51:39;6.50;99.90
26262;DHT22;13988;52.446;13.280;2023-02-13T07:54:05;6.50;99.90
26262;DHT22;13988;52.446;13.280;2023-02-13T07:56:31;6.50;99.90
26262;DHT22;13988;52.446;13.280;2023-02-13T07:58:56;6.50;99.90
26262;DHT22;13988;52.446;13.280;2023-02-13T08:01:22;6.50;99.90
26262;DHT22;13988;52.446;13.280;2023-02-13T08:03:50;6.70;99.90
26262;DHT22;13988;52.446;13.280;2023-02-13T08:06:17;6.70;99.90
26262;DHT22;13988;52.446;13.280;2023-02-13T08:08:43;6.60;99.90
26262;DHT22;13988;52.446;13.280;2023-02-13T08:11:30;6.60;99.90
26262;DHT22;13988;52.446;13.280;2023-02-13T08:14:15;6.70;99.90
26262;DHT22;13988;52.446;13.280;2023-02-13T08:16:40;6.70;99.90
26262;DHT22;13988;52.446;13.280;2023-02-13T08:19:06;6.70;99.90
26262;DHT22;13988;52.446;13.280;2023-02-13T08:21:32;6.70;99.90
26262;DHT22;13988;52.446;13.280;2023-02-13T08:23:59;6.80;99.90
26262;DHT22;13988;52.446;13.280;2023-02-13T08:26:25;6.80;99.90
26262;DHT22;13988;52.446;13.280;2023-02-13T08:28:51;6.80;99.90
26262;DHT22;13988;52.446;13.280;2023-02-13T08:31:16;6.80;99.90
26262;DHT22;13988;52.446;13.280;2023-02-13T08:33:42;6.80;99.90
26262;DHT22;13988;52.446;13.280;2023-02-13T08:36:08;6.80;99.90
26262;DHT22;13988;52.446;13.280;2023-02-13T08:38:34;6.80;99.90
26262;DHT22;13988;52.446;13.280;2023-02-13T08:41:00;6.90;99.90
26262;DHT22;13988;52.446;13.280;2023-02-13T08:43:25;6.80;99.90
26262;DHT22;13988;52.446;13.280;2023-02-13T08:45:51;6.80;99.90
26262;DHT22;13988;52.446;13.280;2023-02-13T08:48:16;6.90;99.90
26262;DHT22;13988;52.446;13.280;2023-02-13T08:50:42;6.90;99.90
26262;DHT22;13988;52.446;13.280;2023-02-13T08:53:07;6.90;99.90
26262;DHT22;13988;52.446;13.280;2023-02-13T08:55:33;7.00;99.90
26262;DHT22;13988;52.446;13.280;2023-02-13T08:58:00;6.90;99.90
26262;DHT22;13988;52.446;13.280;2023-02-13T09:00:26;7.00;99.90
26262;DHT22;13988;52.446;13.280;2023-02-13T09:02:52;7.00;99.90
26262;DHT22;13988;52.446;13.280;2023-02-13T09:05:17;7.00;99.90
26262;DHT22;13988;52.446;13.280;2023-02-13T09:07:43;7.10;99.90
26262;DHT22;13988;52.446;13.280;2023-02-13T09:10:09;7.10;99.90
26262;DHT22;13988;52.446;13.280;2023-02-13T09:12:35;7.00;99.90
26262;DHT22;13988;52.446;13.280;2023-02-13T09:15:00;7.10;99.90
26262;DHT22;13988;52.446;13.280;2023-02-13T09:17:26;7.10;99.90
26262;DHT22;13988;52.446;13.280;2023-02-13T09:19:52;7.20;99.90
26262;DHT22;13988;52.446;13.280;2023-02-13T09:22:17;7.20;99.90
26262;DHT22;13988;52.446;13.280;2023-02-13T09:24:43;7.30;99.90
26262;DHT22;13988;52.446;13.280;2023-02-13T09:27:08;7.20;99.90
26262;DHT22;13988;52.446;13.280;2023-02-13T09:29:34;7.20;99.90
26262;DHT22;13988;52.446;13.280;2023-02-13T09:32:00;7.50;99.90
26262;DHT22;13988;52.446;13.280;2023-02-13T09:34:26;7.30;99.90
26262;DHT22;13988;52.446;13.280;2023-02-13T09:36:52;7.30;99.90
26262;DHT22;13988;52.446;13.280;2023-02-13T09:39:18;7.30;99.90
26262;DHT22;13988;52.446;13.280;2023-02-13T09:41:47;7.30;99.90
26262;DHT22;13988;52.446;13.280;2023-02-13T09:47:41;7.40;99.90
26262;DHT22;13988;52.446;13.280;2023-02-13T09:52:39;7.40;99.90
26262;DHT22;13988;52.446;13.280;2023-02-13T09:55:51;7.40;99.90
26262;DHT22;13988;52.446;13.280;2023-02-13T10:00:49;7.40;99.90
26262;DHT22;13988;52.446;13.280;2023-02-13T10:06:11;7.30;99.90
26262;DHT22;13988;52.446;13.280;2023-02-13T10:09:16;7.30;99.90
26262;DHT22;13988;52.446;13.280;2023-02-13T10:17:13;7.30;99.90
26262;DHT22;13988;52.446;13.280;2023-02-13T10:19:49;7.40;99.90
26262;DHT22;13988;52.446;13.280;2023-02-13T10:22:28;7.40;99.90
26262;DHT22;13988;52.446;13.280;2023-02-13T10:25:22;7.60;99.90
26262;DHT22;13988;52.446;13.280;2023-02-13T10:28:06;7.70;99.90
26262;DHT22;13988;52.446;13.280;2023-02-13T10:30:44;7.60;99.90
26262;DHT22;13988;52.446;13.280;2023-02-13T10:33:17;7.80;99.90
26262;DHT22;13988;52.446;13.280;2023-02-13T10:35:54;7.90;99.90
26262;DHT22;13988;52.446;13.280;2023-02-13T10:38:24;7.90;99.90
26262;DHT22;13988;52.446;13.280;2023-02-13T10:41:02;7.90;99.90
26262;DHT22;13988;52.446;13.280;2023-02-13T10:43:34;8.00;99.90
26262;DHT22;13988;52.446;13.280;2023-02-13T10:46:28;7.90;99.90
26262;DHT22;13988;52.446;13.280;2023-02-13T10:51:58;7.80;99.90
26262;DHT22;13988;52.446;13.280;2023-02-13T10:54:51;7.60;99.90
26262;DHT22;13988;52.446;13.280;2023-02-13T10:57:30;7.60;99.90
26262;DHT22;13988;52.446;13.280;2023-02-13T11:03:20;7.60;99.90
26262;DHT22;13988;52.446;13.280;2023-02-13T11:05:47;7.60;99.90
26262;DHT22;13988;52.446;13.280;2023-02-13T11:10:51;7.50;99.90
26262;DHT22;13988;52.446;13.280;2023-02-13T11:13:25;7.60;99.90
26262;DHT22;13988;52.446;13.280;2023-02-13T11:16:07;7.70;99.90
26262;DHT22;13988;52.446;13.280;2023-02-13T11:18:39;7.80;99.90
26262;DHT22;13988;52.446;13.280;2023-02-13T11:21:32;7.80;99.90
26262;DHT22;13988;52.446;13.280;2023-02-13T11:24:00;7.80;99.90
26262;DHT22;13988;52.446;13.280;2023-02-13T11:26:34;7.80;99.90
26262;DHT22;13988;52.446;13.280;2023-02-13T11:29:03;7.80;99.90
26262;DHT22;13988;52.446;13.280;2023-02-13T11:31:34;7.80;99.90
26262;DHT22;13988;52.446;13.280;2023-02-13T11:36:50;7.80;99.90
26262;DHT22;13988;52.446;13.280;2023-02-13T11:39:21;7.80;99.90
26262;DHT22;13988;52.446;13.280;2023-02-13T11:41:48;7.80;99.90
26262;DHT22;13988;52.446;13.280;2023-02-13T11:44:32;7.80;99.90
26262;DHT22;13988;52.446;13.280;2023-02-13T11:46:59;7.80;99.90
26262;DHT22;13988;52.446;13.280;2023-02-13T11:49:32;7.80;99.90
26262;DHT22;13988;52.446;13.280;2023-02-13T11:52:41;7.80;99.90
26262;DHT22;13988;52.446;13.280;2023-02-13T11:55:26;7.80;99.90
26262;DHT22;13988;52.446;13.280;2023-02-13T11:57:58;7.80;99.90
26262;DHT22;13988;52.446;13.280;2023-02-13T12:00:38;7.80;99.90
26262;DHT22;13988;52.446;13.280;2023-02-13T12:06:00;7.80;99.90
26262;DHT22;13988;52.446;13.280;2023-02-13T12:08:28;7.90;99.90
26262;DHT22;13988;52.446;13.280;2023-02-13T12:10:55;8.00;99.90
26262;DHT22;13988;52.446;13.280;2023-02-13T12:13:30;7.90;99.90
26262;DHT22;13988;52.446;13.280;2023-02-13T12:16:02;8.00;99.90
26262;DHT22;13988;52.446;13.280;2023-02-13T12:18:45;7.90;99.90
26262;DHT22;13988;52.446;13.280;2023-02-13T12:29:57;8.00;99.90
26262;DHT22;13988;52.446;13.280;2023-02-13T12:32:38;7.90;99.90
26262;DHT22;13988;52.446;13.280;2023-02-13T12:46:13;8.00;99.90
26262;DHT22;13988;52.446;13.280;2023-02-13T13:10:37;8.10;99.90
26262;DHT22;13988;52.446;13.280;2023-02-13T13:16:07;7.90;99.90
26262;DHT22;13988;52.446;13.280;2023-02-13T13:18:38;7.90;99.90
26262;DHT22;13988;52.446;13.280;2023-02-13T13:23:59;7.80;99.90
26262;DHT22;13988;52.446;13.280;2023-02-13T13:26:42;7.90;99.90
26262;DHT22;13988;52.446;13.280;2023-02-13T13:29:20;8.00;99.90
26262;DHT22;13988;52.446;13.280;2023-02-13T13:31:54;7.90;99.90
26262;DHT22;13988;52.446;13.280;2023-02-13T13:34:24;7.90;99.90
26262;DHT22;13988;52.446;13.280;2023-02-13T13:36:52;7.80;99.90
26262;DHT22;13988;52.446;13.280;2023-02-13T13:42:22;7.80;99.90
26262;DHT22;13988;52.446;13.280;2023-02-13T13:53:04;7.80;99.90
26262;DHT22;13988;52.446;13.280;2023-02-13T13:58:30;7.80;99.90
26262;DHT22;13988;52.446;13.280;2023-02-13T14:01:16;7.80;99.90
26262;DHT22;13988;52.446;13.280;2023-02-13T14:03:43;7.80;99.90
26262;DHT22;13988;52.446;13.280;2023-02-13T14:06:11;7.70;99.90
26262;DHT22;13988;52.446;13.280;2023-02-13T14:11:37;7.80;99.90
26262;DHT22;13988;52.446;13.280;2023-02-13T14:16:53;7.70;99.90
26262;DHT22;13988;52.446;13.280;2023-02-13T14:19:33;7.80;99.90
26262;DHT22;13988;52.446;13.280;2023-02-13T14:22:33;7.70;99.90
26262;DHT22;13988;52.446;13.280;2023-02-13T14:25:06;7.70;99.90
26262;DHT22;13988;52.446;13.280;2023-02-13T14:27:37;7.70;99.90
26262;DHT22;13988;52.446;13.280;2023-02-13T14:30:33;7.70;99.90
26262;DHT22;13988;52.446;13.280;2023-02-13T14:33:03;7.70;99.90
26262;DHT22;13988;52.446;13.280;2023-02-13T14:35:35;7.60;99.90
26262;DHT22;13988;52.446;13.280;2023-02-13T14:38:03;7.60;99.90
26262;DHT22;13988;52.446;13.280;2023-02-13T14:40:47;7.70;99.90
26262;DHT22;13988;52.446;13.280;2023-02-13T14:46:30;7.60;99.90
26262;DHT22;13988;52.446;13.280;2023-02-13T14:49:11;7.60;99.90
26262;DHT22;13988;52.446;13.280;2023-02-13T14:51:43;7.50;99.90
26262;DHT22;13988;52.446;13.280;2023-02-13T14:54:31;7.60;99.90
26262;DHT22;13988;52.446;13.280;2023-02-13T14:59:44;7.60;99.90
26262;DHT22;13988;52.446;13.280;2023-02-13T15:02:25;7.50;99.90
26262;DHT22;13988;52.446;13.280;2023-02-13T15:05:16;7.50;99.90
26262;DHT22;13988;52.446;13.280;2023-02-13T15:10:44;7.40;99.90
26262;DHT22;13988;52.446;13.280;2023-02-13T15:13:35;7.40;99.90
26262;DHT22;13988;52.446;13.280;2023-02-13T15:16:05;7.40;99.90
26262;DHT22;13988;52.446;13.280;2023-02-13T15:18:44;7.40;99.90
26262;DHT22;13988;52.446;13.280;2023-02-13T15:21:15;7.40;99.90
26262;DHT22;13988;52.446;13.280;2023-02-13T15:23:42;7.40;99.90
26262;DHT22;13988;52.446;13.280;2023-02-13T15:26:16;7.40;99.90
26262;DHT22;13988;52.446;13.280;2023-02-13T15:29:18;7.30;99.90
26262;DHT22;13988;52.446;13.280;2023-02-13T15:31:42;7.30;99.90
26262;DHT22;13988;52.446;13.280;2023-02-13T15:34:21;7.30;99.90
26262;DHT22;13988;52.446;13.280;2023-02-13T15:36:47;7.30;99.90
26262;DHT22;13988;52.446;13.280;2023-02-13T15:39:18;7.30;99.90
26262;DHT22;13988;52.446;13.280;2023-02-13T15:41:53;7.30;99.90
26262;DHT22;13988;52.446;13.280;2023-02-13T15:44:24;7.30;99.90
26262;DHT22;13988;52.446;13.280;2023-02-13T15:46:52;7.20;99.90
26262;DHT22;13988;52.446;13.280;2023-02-13T15:49:21;7.20;99.90
26262;DHT22;13988;52.446;13.280;2023-02-13T15:51:49;7.20;99.90
26262;DHT22;13988;52.446;13.280;2023-02-13T15:54:22;7.20;99.90
26262;DHT22;13988;52.446;13.280;2023-02-13T15:56:50;7.20;99.90
26262;DHT22;13988;52.446;13.280;2023-02-13T15:59:18;7.20;99.90
26262;DHT22;13988;52.446;13.280;2023-02-13T16:01:44;7.20;99.90
26262;DHT22;13988;52.446;13.280;2023-02-13T16:04:13;7.20;99.90
26262;DHT22;13988;52.446;13.280;2023-02-13T16:06:41;7.10;99.90
26262;DHT22;13988;52.446;13.280;2023-02-13T16:09:33;7.10;99.90
26262;DHT22;13988;52.446;13.280;2023-02-13T16:12:25;7.00;99.90
26262;DHT22;13988;52.446;13.280;2023-02-13T16:17:33;7.00;99.90
26262;DHT22;13988;52.446;13.280;2023-02-13T16:20:07;7.00;99.90
26262;DHT22;13988;52.446;13.280;2023-02-13T16:22:52;7.00;99.90
26262;DHT22;13988;52.446;13.280;2023-02-13T16:25:32;7.00;99.90
26262;DHT22;13988;52.446;13.280;2023-02-13T16:28:01;7.00;99.90
26262;DHT22;13988;52.446;13.280;2023-02-13T16:30:43;7.20;99.90
26262;DHT22;13988;52.446;13.280;2023-02-13T16:35:53;7.00;99.90
26262;DHT22;13988;52.446;13.280;2023-02-13T16:38:27;7.00;99.90
26262;DHT22;13988;52.446;13.280;2023-02-13T16:40:58;7.10;99.90
26262;DHT22;13988;52.446;13.280;2023-02-13T16:43:47;7.00;99.90
26262;DHT22;13988;52.446;13.280;2023-02-13T16:54:28;6.90;99.90
26262;DHT22;13988;52.446;13.280;2023-02-13T16:57:01;6.90;99.90
26262;DHT22;13988;52.446;13.280;2023-02-13T17:02:23;6.80;99.90
26262;DHT22;13988;52.446;13.280;2023-02-13T17:05:10;6.90;99.90
26262;DHT22;13988;52.446;13.280;2023-02-13T17:07:43;6.80;99.90
26262;DHT22;13988;52.446;13.280;2023-02-13T17:10:25;6.90;99.90
26262;DHT22;13988;52.446;13.280;2023-02-13T17:12:52;6.80;99.90
26262;DHT22;13988;52.446;13.280;2023-02-13T17:15:26;6.80;99.90
26262;DHT22;13988;52.446;13.280;2023-02-13T17:17:53;6.80;99.90
26262;DHT22;13988;52.446;13.280;2023-02-13T17:20:30;6.70;99.90
26262;DHT22;13988;52.446;13.280;2023-02-13T17:22:58;6.80;99.90
26262;DHT22;13988;52.446;13.280;2023-02-13T17:25:27;6.80;99.90
26262;DHT22;13988;52.446;13.280;2023-02-13T17:27:56;6.80;99.90
26262;DHT22;13988;52.446;13.280;2023-02-13T17:30:24;6.80;99.90
26262;DHT22;13988;52.446;13.280;2023-02-13T17:33:00;6.70;99.90
26262;DHT22;13988;52.446;13.280;2023-02-13T17:35:27;6.80;99.90
26262;DHT22;13988;52.446;13.280;2023-02-13T17:37:53;6.70;99.90
26262;DHT22;13988;52.446;13.280;2023-02-13T17:40:20;6.80;99.90
26262;DHT22;13988;52.446;13.280;2023-02-13T17:42:53;6.70;99.90
26262;DHT22;13988;52.446;13.280;2023-02-13T17:45:21;6.80;99.90
26262;DHT22;13988;52.446;13.280;2023-02-13T17:47:47;6.80;99.90
26262;DHT22;13988;52.446;13.280;2023-02-13T17:50:15;6.80;99.90
26262;DHT22;13988;52.446;13.280;2023-02-13T17:52:42;6.70;99.90
26262;DHT22;13988;52.446;13.280;2023-02-13T17:55:19;6.70;99.90
26262;DHT22;13988;52.446;13.280;2023-02-13T17:57:46;6.70;99.90
26262;DHT22;13988;52.446;13.280;2023-02-13T18:00:12;6.70;99.90
26262;DHT22;13988;52.446;13.280;2023-02-13T18:02:39;6.70;99.90
26262;DHT22;13988;52.446;13.280;2023-02-13T18:05:09;6.70;99.90
26262;DHT22;13988;52.446;13.280;2023-02-13T18:07:35;6.70;99.90
26262;DHT22;13988;52.446;13.280;2023-02-13T18:10:05;6.70;99.90
26262;DHT22;13988;52.446;13.280;2023-02-13T18:12:31;6.70;99.90
26262;DHT22;13988;52.446;13.280;2023-02-13T18:14:57;6.70;99.90
26262;DHT22;13988;52.446;13.280;2023-02-13T18:17:22;6.70;99.90
26262;DHT22;13988;52.446;13.280;2023-02-13T18:19:48;6.60;99.90
26262;DHT22;13988;52.446;13.280;2023-02-13T18:22:15;6.70;99.90
26262;DHT22;13988;52.446;13.280;2023-02-13T18:24:41;6.70;99.90
26262;DHT22;13988;52.446;13.280;2023-02-13T18:27:07;6.60;99.90
26262;DHT22;13988;52.446;13.280;2023-02-13T18:29:35;6.60;99.90
26262;DHT22;13988;52.446;13.280;2023-02-13T18:32:02;6.60;99.90
26262;DHT22;13988;52.446;13.280;2023-02-13T18:34:27;6.60;99.90
26262;DHT22;13988;52.446;13.280;2023-02-13T18:36:53;6.70;99.90
26262;DHT22;13988;52.446;13.280;2023-02-13T18:39:19;6.60;99.90
26262;DHT22;13988;52.446;13.280;2023-02-13T18:41:44;6.50;99.90